TimeCST,TemperatureF,Dew PointF,Humidity,Sea Level PressureIn,VisibilityMPH,Wind Direction,Wind SpeedMPH,Gust SpeedMPH,PrecipitationIn,Events,Conditions,WindDirDegrees,DateUTC
12:53 AM,44.1,30.9,60,29.83,10.0,NNE,3.5,-,N/A,,Overcast,20,2013-02-13 06:53:00
1:53 AM,43.0,32.0,65,29.81,10.0,ENE,5.8,-,N/A,,Overcast,60,2013-02-13 07:53:00
2:53 AM,44.1,32.0,63,29.79,10.0,Calm,Calm,-,0.00,,Overcast,0,2013-02-13 08:53:00
3:53 AM,44.1,30.9,60,29.76,10.0,NNE,6.9,-,0.00,,Overcast,20,2013-02-13 09:53:00
4:53 AM,42.1,34.0,73,29.78,10.0,Calm,Calm,-,0.02,Rain,Light Rain,0,2013-02-13 10:53:00
5:42 AM,39.2,33.8,81,29.79,6.0,North,5.8,-,0.03,Rain,Light Rain,360,2013-02-13 11:42:00
5:53 AM,39.9,33.1,77,29.80,8.0,North,10.4,-,0.04,Rain,Light Rain,10,2013-02-13 11:53:00
6:53 AM,37.9,34.0,86,29.81,5.0,North,6.9,-,0.06,Rain,Light Rain,10,2013-02-13 12:53:00
7:53 AM,39.0,35.1,86,29.80,6.0,NNE,5.8,-,0.01,,Overcast,30,2013-02-13 13:53:00
8:03 AM,39.2,35.6,87,29.80,6.0,North,3.5,-,N/A,,Overcast,10,2013-02-13 14:03:00
8:44 AM,39.2,33.8,81,29.83,8.0,North,6.9,-,N/A,,Overcast,350,2013-02-13 14:44:00
8:53 AM,39.9,34.0,79,29.83,8.0,North,6.9,-,0.00,Rain,Light Rain,360,2013-02-13 14:53:00
9:53 AM,37.9,33.1,83,29.86,6.0,North,6.9,17.3,0.00,Rain,Light Rain,350,2013-02-13 15:53:00
10:21 AM,37.4,33.8,87,29.87,5.0,North,6.9,-,0.00,Rain,Light Rain,350,2013-02-13 16:21:00
10:51 AM,37.4,33.8,87,29.86,9.0,North,9.2,16.1,0.01,,Overcast,360,2013-02-13 16:51:00
10:53 AM,37.9,33.1,83,29.87,9.0,North,10.4,-,0.01,,Overcast,10,2013-02-13 16:53:00
11:23 AM,37.4,33.8,87,29.88,9.0,NNW,8.1,-,0.00,Rain,Light Rain,340,2013-02-13 17:23:00
11:53 AM,37.9,34.0,86,29.89,9.0,NNW,5.8,-,0.00,,Overcast,330,2013-02-13 17:53:00
12:53 PM,39.0,34.0,82,29.90,7.0,NNW,6.9,-,0.00,,Overcast,330,2013-02-13 18:53:00
1:46 PM,39.2,33.8,81,29.89,10.0,NNW,4.6,-,N/A,,Overcast,340,2013-02-13 19:46:00
1:53 PM,39.9,33.1,77,29.90,10.0,NW,6.9,-,N/A,,Overcast,310,2013-02-13 19:53:00
2:53 PM,39.9,34.0,79,29.90,10.0,West,3.5,-,N/A,,Overcast,270,2013-02-13 20:53:00
3:53 PM,41.0,34.0,76,29.91,10.0,WSW,6.9,-,N/A,,Overcast,250,2013-02-13 21:53:00
4:53 PM,41.0,33.1,73,29.93,10.0,West,6.9,-,N/A,,Overcast,260,2013-02-13 22:53:00
5:53 PM,39.9,33.1,77,29.95,10.0,WSW,4.6,-,N/A,,Overcast,240,2013-02-13 23:53:00
6:53 PM,41.0,34.0,76,29.96,10.0,SW,4.6,-,N/A,,Overcast,220,2013-02-14 00:53:00
7:53 PM,39.0,33.1,79,29.97,10.0,Calm,Calm,-,N/A,,Scattered Clouds,0,2013-02-14 01:53:00
8:12 PM,37.4,32.0,81,29.97,10.0,South,3.5,-,N/A,,Mostly Cloudy,190,2013-02-14 02:12:00
8:53 PM,37.0,33.1,86,29.99,10.0,SSW,4.6,-,N/A,,Overcast,200,2013-02-14 02:53:00
9:26 PM,35.6,32.0,87,29.98,9.0,SSW,5.8,-,N/A,,Partly Cloudy,200,2013-02-14 03:26:00
9:53 PM,36.0,32.0,86,30.00,8.0,South,4.6,-,N/A,,Clear,190,2013-02-14 03:53:00
10:53 PM,35.1,32.0,89,30.01,8.0,SSW,3.5,-,N/A,,Clear,200,2013-02-14 04:53:00
11:53 PM,35.1,32.0,89,30.01,10.0,South,5.8,-,N/A,,Clear,190,2013-02-14 05:53:00